createdAt,value
2017-11-16T00:02:07.296Z,4.50
2017-11-16T00:04:35.590Z,4.40
2017-11-16T00:07:03.138Z,4.40
2017-11-16T00:09:30.673Z,4.40
2017-11-16T00:11:58.210Z,4.40
2017-11-16T00:14:25.725Z,4.40
2017-11-16T00:16:53.260Z,4.40
2017-11-16T00:19:20.800Z,4.50
2017-11-16T00:21:48.354Z,4.40
2017-11-16T00:24:15.894Z,4.50
2017-11-16T00:26:43.457Z,4.40
2017-11-16T00:29:10.993Z,4.50
2017-11-16T00:31:38.562Z,4.40
2017-11-16T00:34:06.092Z,4.40
2017-11-16T00:36:34.412Z,4.40
2017-11-16T00:39:01.948Z,4.40
2017-11-16T00:41:29.498Z,4.40
2017-11-16T00:43:57.789Z,4.40
2017-11-16T00:46:25.350Z,4.30
2017-11-16T00:48:53.647Z,4.40
2017-11-16T00:51:21.201Z,4.30
2017-11-16T00:53:48.737Z,4.40
2017-11-16T00:56:17.044Z,4.30
2017-11-16T00:58:45.345Z,4.30
2017-11-16T01:01:12.904Z,4.30
2017-11-16T01:03:40.465Z,4.30
2017-11-16T01:06:08.025Z,4.30
2017-11-16T01:08:35.603Z,4.30
2017-11-16T01:11:03.134Z,4.30
2017-11-16T01:13:30.711Z,4.40
2017-11-16T01:15:58.252Z,4.40
2017-11-16T01:18:25.803Z,4.40
2017-11-16T01:20:53.344Z,4.40
2017-11-16T01:23:21.670Z,4.30
2017-11-16T01:25:49.193Z,4.30
2017-11-16T01:28:16.739Z,4.40
2017-11-16T01:30:45.034Z,4.30
2017-11-16T01:33:12.578Z,4.30
2017-11-16T01:35:40.886Z,4.30
2017-11-16T01:38:08.430Z,4.30
2017-11-16T01:40:35.960Z,4.30
2017-11-16T01:43:03.526Z,4.30
2017-11-16T01:45:31.826Z,4.40
2017-11-16T01:47:59.389Z,4.30
2017-11-16T01:50:26.939Z,4.30
2017-11-16T01:52:55.241Z,4.30
2017-11-16T01:55:22.823Z,4.30
2017-11-16T01:57:50.350Z,4.30
2017-11-16T02:00:18.016Z,4.30
2017-11-16T02:02:45.546Z,4.30
2017-11-16T02:05:13.137Z,4.30
2017-11-16T02:07:40.684Z,4.30
2017-11-16T02:10:08.996Z,4.30
2017-11-16T02:12:36.536Z,4.30
2017-11-16T02:15:04.102Z,4.30
2017-11-16T02:17:31.626Z,4.30
2017-11-16T02:19:59.950Z,4.30
2017-11-16T02:22:27.486Z,4.30
2017-11-16T02:24:55.030Z,4.30
2017-11-16T02:27:23.333Z,4.30
2017-11-16T02:29:50.866Z,4.30
2017-11-16T02:32:19.160Z,4.30
2017-11-16T02:34:47.486Z,4.30
2017-11-16T02:37:15.017Z,4.30
2017-11-16T02:39:42.583Z,4.30
2017-11-16T02:42:10.130Z,4.30
2017-11-16T02:44:37.683Z,4.40
2017-11-16T02:47:05.214Z,4.30
2017-11-16T02:49:32.770Z,4.30
2017-11-16T02:52:00.316Z,4.30
2017-11-16T02:54:27.868Z,4.30
2017-11-16T02:56:55.423Z,4.30
2017-11-16T02:59:22.953Z,4.30
2017-11-16T03:01:50.504Z,4.30
2017-11-16T03:04:18.800Z,4.30
2017-11-16T03:06:46.354Z,4.30
2017-11-16T03:09:13.900Z,4.30
2017-11-16T03:11:42.209Z,4.30
2017-11-16T03:14:09.751Z,4.30
2017-11-16T03:16:37.316Z,4.30
2017-11-16T03:19:04.841Z,4.30
2017-11-16T03:21:32.384Z,4.30
2017-11-16T03:23:59.935Z,4.30
2017-11-16T03:26:27.498Z,4.30
2017-11-16T03:28:55.055Z,4.30
2017-11-16T03:31:22.593Z,4.30
2017-11-16T03:33:50.124Z,4.30
2017-11-16T03:36:18.442Z,4.30
2017-11-16T03:38:45.985Z,4.30
2017-11-16T03:41:13.547Z,4.30
2017-11-16T03:43:41.077Z,4.30
2017-11-16T03:46:09.400Z,4.30
2017-11-16T03:48:36.941Z,4.30
2017-11-16T03:51:04.501Z,4.30
2017-11-16T03:53:32.061Z,4.30
2017-11-16T03:55:59.597Z,4.30
2017-11-16T03:58:27.151Z,4.30
2017-11-16T04:00:55.462Z,4.30
2017-11-16T04:03:23.025Z,4.30
2017-11-16T04:05:50.585Z,4.30
2017-11-16T04:08:18.130Z,4.30
2017-11-16T04:10:45.654Z,4.30
2017-11-16T04:13:13.224Z,4.30
2017-11-16T04:15:40.818Z,4.30
2017-11-16T04:18:08.358Z,4.30
2017-11-16T04:20:36.652Z,4.30
2017-11-16T04:23:04.978Z,4.30
2017-11-16T04:25:32.533Z,4.30
2017-11-16T04:28:00.102Z,4.30
2017-11-16T04:30:27.649Z,4.30
2017-11-16T04:32:55.198Z,4.30
2017-11-16T04:35:22.750Z,4.30
2017-11-16T04:37:50.317Z,4.30
2017-11-16T04:40:17.837Z,4.30
2017-11-16T04:42:46.147Z,4.30
2017-11-16T04:45:13.678Z,4.30
2017-11-16T04:47:41.986Z,4.30
2017-11-16T04:50:09.534Z,4.30
2017-11-16T04:52:37.082Z,4.30
2017-11-16T04:55:05.396Z,4.30
2017-11-16T04:57:32.926Z,4.30
2017-11-16T05:00:00.464Z,4.30
2017-11-16T05:02:28.003Z,4.40
2017-11-16T05:04:55.557Z,4.40
2017-11-16T05:07:23.088Z,4.40
2017-11-16T05:09:50.644Z,4.40
2017-11-16T05:12:18.165Z,4.40
2017-11-16T05:14:45.714Z,4.40
2017-11-16T05:17:13.235Z,4.40
2017-11-16T05:19:40.778Z,4.50
2017-11-16T05:22:08.308Z,4.40
2017-11-16T05:24:36.633Z,4.50
2017-11-16T05:27:04.176Z,4.40
2017-11-16T05:29:31.740Z,4.50
2017-11-16T05:31:59.270Z,4.50
2017-11-16T05:34:26.805Z,4.50
2017-11-16T05:36:54.330Z,4.50
2017-11-16T05:39:22.640Z,4.50
2017-11-16T05:41:50.174Z,4.50
2017-11-16T05:44:17.703Z,4.50
2017-11-16T05:46:46.014Z,4.50
2017-11-16T05:49:13.556Z,4.50
2017-11-16T05:51:41.119Z,4.50
2017-11-16T05:54:08.657Z,4.50
2017-11-16T05:56:36.980Z,4.50
2017-11-16T05:59:04.525Z,4.50
2017-11-16T06:01:32.074Z,4.50
2017-11-16T06:03:59.613Z,4.50
2017-11-16T06:06:27.925Z,4.50
2017-11-16T06:08:55.451Z,4.50
2017-11-16T06:11:23.778Z,4.60
2017-11-16T06:13:51.291Z,4.50
2017-11-16T06:16:19.640Z,4.60
2017-11-16T06:18:47.169Z,4.60
2017-11-16T06:21:14.720Z,4.60
2017-11-16T06:23:42.276Z,4.60
2017-11-16T06:26:09.816Z,4.60
2017-11-16T06:28:38.129Z,4.60
2017-11-16T06:31:05.690Z,4.60
2017-11-16T06:33:33.234Z,4.60
2017-11-16T06:36:00.803Z,4.60
2017-11-16T06:38:28.334Z,4.60
2017-11-16T06:40:56.634Z,4.60
2017-11-16T06:43:24.201Z,4.60
2017-11-16T06:45:51.744Z,4.60
2017-11-16T06:48:20.055Z,4.60
2017-11-16T06:50:47.608Z,4.50
2017-11-16T06:53:15.149Z,4.60
2017-11-16T06:55:42.685Z,4.60
2017-11-16T06:58:10.225Z,4.60
2017-11-16T07:00:37.766Z,4.60
2017-11-16T07:03:05.319Z,4.60
2017-11-16T07:05:32.838Z,4.60
2017-11-16T07:08:01.152Z,4.60
2017-11-16T07:10:28.694Z,4.60
2017-11-16T07:12:56.236Z,4.60
2017-11-16T07:15:24.550Z,4.60
2017-11-16T07:17:52.105Z,4.60
2017-11-16T07:20:19.654Z,4.60
2017-11-16T07:22:47.200Z,4.60
2017-11-16T07:25:15.501Z,4.60
2017-11-16T07:27:43.046Z,4.60
2017-11-16T07:30:10.581Z,4.70
2017-11-16T07:32:38.127Z,4.60
2017-11-16T07:35:05.690Z,4.60
2017-11-16T07:37:33.245Z,4.60
2017-11-16T07:40:00.789Z,4.60
2017-11-16T07:42:28.317Z,4.60
2017-11-16T07:44:55.877Z,4.60
2017-11-16T07:47:23.404Z,4.60
2017-11-16T07:49:51.732Z,4.60
2017-11-16T07:52:19.253Z,4.60
2017-11-16T07:54:47.574Z,4.70
2017-11-16T07:57:15.118Z,4.70
2017-11-16T07:59:42.676Z,4.70
2017-11-16T08:02:10.225Z,4.70
2017-11-16T08:04:38.538Z,4.70
2017-11-16T08:07:06.073Z,4.70
2017-11-16T08:09:33.633Z,4.70
2017-11-16T08:12:02.391Z,4.70
2017-11-16T08:14:29.933Z,4.70
2017-11-16T08:16:57.462Z,4.80
2017-11-16T08:19:24.992Z,4.70
2017-11-16T08:21:52.535Z,4.70
2017-11-16T08:24:20.109Z,4.70
2017-11-16T08:26:47.644Z,4.70
2017-11-16T08:29:15.190Z,4.70
2017-11-16T08:31:42.727Z,4.70
2017-11-16T08:34:10.317Z,4.80
2017-11-16T08:36:37.835Z,4.80
2017-11-16T08:39:05.365Z,4.70
2017-11-16T08:41:32.923Z,4.70
2017-11-16T08:44:01.215Z,4.20
2017-11-16T08:46:29.523Z,4.10
2017-11-16T08:48:57.048Z,4.00
2017-11-16T08:51:24.605Z,4.00
2017-11-16T08:53:52.898Z,4.00
2017-11-16T08:56:20.442Z,4.00
2017-11-16T08:58:48.759Z,4.00
2017-11-16T09:01:16.329Z,4.00
2017-11-16T09:03:43.849Z,4.00
2017-11-16T09:06:12.158Z,4.10
2017-11-16T09:08:39.686Z,4.10
2017-11-16T09:11:07.996Z,4.30
2017-11-16T09:13:35.528Z,4.30
2017-11-16T09:16:03.824Z,4.40
2017-11-16T09:18:31.365Z,4.40
2017-11-16T09:20:59.665Z,4.30
2017-11-16T09:23:27.200Z,4.30
2017-11-16T09:25:55.513Z,4.20
2017-11-16T09:28:23.327Z,4.20
2017-11-16T09:30:51.004Z,4.20
2017-11-16T09:33:18.593Z,4.30
2017-11-16T09:35:46.253Z,4.40
2017-11-16T09:38:13.922Z,4.50
2017-11-16T09:40:41.593Z,4.60
2017-11-16T09:43:09.248Z,4.60
2017-11-16T09:45:36.827Z,4.70
2017-11-16T09:48:04.436Z,4.70
2017-11-16T09:50:32.054Z,4.80
2017-11-16T09:52:59.682Z,4.80
2017-11-16T09:55:27.224Z,4.90
2017-11-16T09:57:54.757Z,5.00
2017-11-16T10:00:22.351Z,5.00
2017-11-16T10:02:50.680Z,5.10
2017-11-16T10:05:18.196Z,5.10
2017-11-16T10:07:46.632Z,5.10
2017-11-16T10:10:14.183Z,5.10
2017-11-16T10:12:41.784Z,5.10
2017-11-16T10:15:10.064Z,5.20
2017-11-16T10:17:38.355Z,5.20
2017-11-16T10:20:06.628Z,5.20
2017-11-16T10:22:34.925Z,5.30
2017-11-16T10:25:02.441Z,5.20
2017-11-16T10:27:29.971Z,5.30
2017-11-16T10:29:57.486Z,5.30
2017-11-16T10:32:25.015Z,5.30
2017-11-16T10:34:52.543Z,5.30
2017-11-16T10:37:20.056Z,5.30
2017-11-16T10:39:48.349Z,5.30
2017-11-16T10:42:16.624Z,5.40
2017-11-16T10:44:44.924Z,5.40
2017-11-16T10:47:13.212Z,5.40
2017-11-16T10:49:40.745Z,5.40
2017-11-16T10:52:08.268Z,5.40
2017-11-16T10:54:36.577Z,5.40
2017-11-16T10:57:04.092Z,5.40
2017-11-16T10:59:31.619Z,5.40
2017-11-16T11:01:59.142Z,5.40
2017-11-16T11:04:26.667Z,5.40
2017-11-16T11:06:54.175Z,5.40
2017-11-16T11:09:22.460Z,5.50
2017-11-16T11:11:49.967Z,5.40
2017-11-16T11:14:17.497Z,5.50
2017-11-16T11:16:45.004Z,5.50
2017-11-16T11:19:12.549Z,5.50
2017-11-16T11:21:40.072Z,5.50
2017-11-16T11:24:07.607Z,5.50
2017-11-16T11:26:35.113Z,5.50
2017-11-16T11:29:02.673Z,5.50
2017-11-16T11:31:30.190Z,5.50
2017-11-16T11:33:57.721Z,5.50
2017-11-16T11:36:25.252Z,5.50
2017-11-16T11:38:52.776Z,5.50
2017-11-16T11:41:21.157Z,5.50
2017-11-16T11:43:48.686Z,5.50
2017-11-16T11:46:16.972Z,5.50
2017-11-16T11:48:44.489Z,5.50
2017-11-16T11:51:12.007Z,5.50
2017-11-16T11:53:39.527Z,5.50
2017-11-16T11:56:07.067Z,5.50
2017-11-16T11:58:34.589Z,5.50
2017-11-16T12:01:02.119Z,5.50
2017-11-16T12:03:30.409Z,5.50
2017-11-16T12:05:57.935Z,5.50
2017-11-16T12:08:25.439Z,5.60
2017-11-16T12:10:52.951Z,5.60
2017-11-16T12:13:20.460Z,5.60
2017-11-16T12:15:47.989Z,5.60
2017-11-16T12:18:16.278Z,5.60
2017-11-16T12:20:44.581Z,5.60
2017-11-16T12:23:12.882Z,5.60
2017-11-16T12:25:40.428Z,5.60
2017-11-16T12:28:07.952Z,5.60
2017-11-16T12:30:35.488Z,5.60
2017-11-16T12:33:03.801Z,5.60
2017-11-16T12:35:31.320Z,5.60
2017-11-16T12:37:58.847Z,5.60
2017-11-16T12:40:26.363Z,5.70
2017-11-16T12:42:54.652Z,5.70
2017-11-16T12:45:22.176Z,5.70
2017-11-16T12:47:49.700Z,5.70
2017-11-16T12:50:17.217Z,5.70
2017-11-16T12:52:45.508Z,5.70
2017-11-16T12:55:13.028Z,5.70
2017-11-16T12:57:40.557Z,5.70
2017-11-16T13:00:08.084Z,5.70
2017-11-16T13:02:35.612Z,5.70
2017-11-16T13:05:03.133Z,5.70
2017-11-16T13:07:30.691Z,5.60
2017-11-16T13:09:58.194Z,5.60
2017-11-16T13:12:25.723Z,5.60
2017-11-16T13:14:53.235Z,5.60
2017-11-16T13:17:21.548Z,5.60
2017-11-16T13:19:49.058Z,5.60
2017-11-16T13:22:17.330Z,5.60
2017-11-16T13:24:45.625Z,5.60
2017-11-16T13:27:13.143Z,5.50
2017-11-16T13:29:40.671Z,5.60
2017-11-16T13:32:08.189Z,5.60
2017-11-16T13:34:36.475Z,5.60
2017-11-16T13:37:04.784Z,5.60
2017-11-16T13:39:32.315Z,5.60
2017-11-16T13:42:00.754Z,5.50
2017-11-16T13:44:28.309Z,5.50
2017-11-16T13:46:55.844Z,5.50
2017-11-16T13:49:23.368Z,5.50
2017-11-16T13:51:51.642Z,5.50
2017-11-16T13:54:19.943Z,5.50
2017-11-16T13:56:47.457Z,5.50
2017-11-16T13:59:14.988Z,5.50
2017-11-16T14:01:42.501Z,5.50
2017-11-16T14:04:10.800Z,5.50
2017-11-16T14:06:38.327Z,5.50
2017-11-16T14:09:06.620Z,5.50
2017-11-16T14:11:34.896Z,5.50
2017-11-16T14:14:03.183Z,5.50
2017-11-16T14:16:30.703Z,5.40
2017-11-16T14:18:58.259Z,5.50
2017-11-16T14:21:25.776Z,5.40
2017-11-16T14:23:53.309Z,5.40
2017-11-16T14:26:21.613Z,5.40
2017-11-16T14:28:49.117Z,5.40
2017-11-16T14:31:17.443Z,5.40
2017-11-16T14:33:44.953Z,5.40
2017-11-16T14:36:12.491Z,5.40
2017-11-16T14:38:40.033Z,5.40
2017-11-16T14:41:07.576Z,5.40
2017-11-16T14:43:35.087Z,5.40
2017-11-16T14:46:02.626Z,5.40
2017-11-16T14:48:30.141Z,5.40
2017-11-16T14:50:57.703Z,5.40
2017-11-16T14:53:25.211Z,5.40
2017-11-16T14:55:52.766Z,5.40
2017-11-16T14:58:20.413Z,5.40
2017-11-16T15:00:47.958Z,5.40
2017-11-16T15:03:15.482Z,5.40
2017-11-16T15:05:43.009Z,5.40
2017-11-16T15:08:10.524Z,5.40
2017-11-16T15:10:38.061Z,5.30
2017-11-16T15:13:05.577Z,5.30
2017-11-16T15:15:33.124Z,5.30
2017-11-16T15:18:00.638Z,5.30
2017-11-16T15:20:28.148Z,5.30
2017-11-16T15:22:55.692Z,5.30
2017-11-16T15:25:23.221Z,5.30
2017-11-16T15:27:51.525Z,5.30
2017-11-16T15:30:19.044Z,5.20
2017-11-16T15:32:46.595Z,5.30
2017-11-16T15:35:14.098Z,5.30
2017-11-16T15:37:41.632Z,5.30
2017-11-16T15:40:09.138Z,5.20
2017-11-16T15:42:36.671Z,5.20
2017-11-16T15:45:04.200Z,5.20
2017-11-16T15:47:31.722Z,5.20
2017-11-16T15:49:59.232Z,5.20
2017-11-16T15:52:27.528Z,5.20
2017-11-16T15:54:55.052Z,5.20
2017-11-16T15:57:22.589Z,5.20
2017-11-16T15:59:50.105Z,5.20
2017-11-16T16:02:17.636Z,5.20
2017-11-16T16:04:45.933Z,5.30
2017-11-16T16:07:13.468Z,5.20
2017-11-16T16:09:40.989Z,5.20
2017-11-16T16:12:08.541Z,5.20
2017-11-16T16:14:36.078Z,5.20
2017-11-16T16:17:03.629Z,5.20
2017-11-16T16:19:31.942Z,5.20
2017-11-16T16:21:59.475Z,5.20
2017-11-16T16:24:27.031Z,5.20
2017-11-16T16:26:55.309Z,5.20
2017-11-16T16:29:23.580Z,5.20
2017-11-16T16:31:51.459Z,5.20
2017-11-16T16:34:18.993Z,5.20
2017-11-16T16:36:46.524Z,5.20
2017-11-16T16:39:14.049Z,5.20
2017-11-16T16:41:41.568Z,5.10
2017-11-16T16:44:09.152Z,5.10
2017-11-16T16:46:37.433Z,5.10
2017-11-16T16:49:04.967Z,5.10
2017-11-16T16:51:33.273Z,5.10
2017-11-16T16:54:00.817Z,5.10
2017-11-16T16:56:28.374Z,5.10
2017-11-16T16:58:56.720Z,5.10
2017-11-16T17:01:24.228Z,5.10
2017-11-16T17:03:51.787Z,5.10
2017-11-16T17:06:19.304Z,5.10
2017-11-16T17:08:46.846Z,5.10
2017-11-16T17:11:14.360Z,5.10
2017-11-16T17:13:41.881Z,5.10
2017-11-16T17:16:09.423Z,5.10
2017-11-16T17:18:36.932Z,5.00
2017-11-16T17:21:04.486Z,5.00
2017-11-16T17:23:32.004Z,5.00
2017-11-16T17:25:59.529Z,5.00
2017-11-16T17:28:27.043Z,5.00
2017-11-16T17:30:54.580Z,5.00
2017-11-16T17:33:22.105Z,5.00
2017-11-16T17:35:49.668Z,5.00
2017-11-16T17:38:17.184Z,5.00
2017-11-16T17:40:44.712Z,5.00
2017-11-16T17:43:13.338Z,5.00
2017-11-16T17:45:40.912Z,5.00
2017-11-16T17:48:09.201Z,5.00
2017-11-16T17:50:36.766Z,5.00
2017-11-16T17:53:04.288Z,5.00
2017-11-16T17:55:31.825Z,5.00
2017-11-16T17:57:59.337Z,5.00
2017-11-16T18:00:26.895Z,5.00
2017-11-16T18:02:54.450Z,5.00
2017-11-16T18:05:22.742Z,5.00
2017-11-16T18:07:50.300Z,5.00
2017-11-16T18:10:17.829Z,5.00
2017-11-16T18:12:47.092Z,5.00
2017-11-16T18:15:14.628Z,5.00
2017-11-16T18:17:42.972Z,5.00
2017-11-16T18:20:11.304Z,5.00
2017-11-16T18:22:38.825Z,5.00
2017-11-16T18:25:07.297Z,5.00
2017-11-16T18:27:35.601Z,5.00
2017-11-16T18:30:03.131Z,5.00
2017-11-16T18:32:31.429Z,5.00
2017-11-16T18:34:58.953Z,5.00
2017-11-16T18:37:26.495Z,5.00
2017-11-16T18:39:54.028Z,5.00
2017-11-16T18:42:21.542Z,5.00
2017-11-16T18:44:49.852Z,5.00
2017-11-16T18:47:17.369Z,5.00
2017-11-16T18:49:44.871Z,5.00
2017-11-16T18:52:12.412Z,5.00
2017-11-16T18:54:40.680Z,5.00
2017-11-16T18:57:09.028Z,5.00
2017-11-16T18:59:36.540Z,5.00
2017-11-16T19:02:04.066Z,5.00
2017-11-16T19:04:31.576Z,5.00
2017-11-16T19:06:59.097Z,4.90
2017-11-16T19:09:27.377Z,4.90
2017-11-16T19:11:55.668Z,4.90
2017-11-16T19:14:23.167Z,4.90
2017-11-16T19:16:50.677Z,4.90
2017-11-16T19:19:18.969Z,4.90
2017-11-16T19:21:46.471Z,4.90
2017-11-16T19:24:14.001Z,4.90
2017-11-16T19:26:41.504Z,4.90
2017-11-16T19:29:09.028Z,4.90
2017-11-16T19:31:36.537Z,4.90
2017-11-16T19:34:04.849Z,4.90
2017-11-16T19:36:32.352Z,4.80
2017-11-16T19:38:59.883Z,4.90
2017-11-16T19:41:27.676Z,4.90
2017-11-16T19:43:55.186Z,4.90
2017-11-16T19:46:22.707Z,4.90
2017-11-16T19:48:51.176Z,4.90
2017-11-16T19:51:18.713Z,4.90
2017-11-16T19:53:46.329Z,4.90
2017-11-16T19:56:13.860Z,4.90
2017-11-16T19:58:41.382Z,4.90
2017-11-16T20:01:08.906Z,4.90
2017-11-16T20:03:37.172Z,4.90
2017-11-16T20:06:05.444Z,4.90
2017-11-16T20:08:32.968Z,4.90
2017-11-16T20:11:00.463Z,4.90
2017-11-16T20:13:28.756Z,4.90
2017-11-16T20:15:56.260Z,4.90
2017-11-16T20:18:23.813Z,4.90
2017-11-16T20:20:51.316Z,4.90
2017-11-16T20:23:18.833Z,4.90
2017-11-16T20:25:46.340Z,4.90
2017-11-16T20:28:14.635Z,4.90
2017-11-16T20:30:42.156Z,4.80
2017-11-16T20:33:09.688Z,4.90
2017-11-16T20:35:37.184Z,4.80
2017-11-16T20:38:08.312Z,4.80
2017-11-16T20:40:55.643Z,4.80
2017-11-16T20:43:35.899Z,4.80
2017-11-16T20:46:05.861Z,4.80
2017-11-16T20:48:51.237Z,4.80
2017-11-16T20:51:25.080Z,4.70
2017-11-16T20:54:02.511Z,4.70
2017-11-16T20:56:30.779Z,4.70
2017-11-16T20:58:59.107Z,4.70
2017-11-16T21:01:26.611Z,4.60
2017-11-16T21:03:54.132Z,4.70
2017-11-16T21:06:21.654Z,4.70
2017-11-16T21:08:49.152Z,4.70
2017-11-16T21:11:17.447Z,4.60
2017-11-16T21:13:44.959Z,4.60
2017-11-16T21:16:12.480Z,4.60
2017-11-16T21:18:39.991Z,4.60
2017-11-16T21:21:07.517Z,4.60
2017-11-16T21:23:35.807Z,4.60
2017-11-16T21:26:04.071Z,4.60
2017-11-16T21:28:32.351Z,4.60
2017-11-16T21:30:59.868Z,4.70
2017-11-16T21:33:27.380Z,4.60
2017-11-16T21:35:55.651Z,4.60
2017-11-16T21:38:23.176Z,4.60
2017-11-16T21:40:50.671Z,4.60
2017-11-16T21:43:18.966Z,4.60
2017-11-16T21:45:46.475Z,4.60
2017-11-16T21:48:14.037Z,4.60
2017-11-16T21:50:41.610Z,4.60
2017-11-16T21:53:09.135Z,4.60
2017-11-16T21:55:36.638Z,4.60
2017-11-16T21:58:04.927Z,4.60
2017-11-16T22:00:32.432Z,4.60
2017-11-16T22:02:59.971Z,4.60
2017-11-16T22:05:27.480Z,4.60
2017-11-16T22:07:55.021Z,4.60
2017-11-16T22:10:24.538Z,4.60
2017-11-16T22:12:52.043Z,4.60
2017-11-16T22:15:19.564Z,4.60
2017-11-16T22:17:47.081Z,4.60
2017-11-16T22:20:14.616Z,4.60
2017-11-16T22:22:42.897Z,4.60
2017-11-16T22:25:10.428Z,4.60
2017-11-16T22:27:40.627Z,4.60
2017-11-16T22:30:08.147Z,4.60
2017-11-16T22:32:35.657Z,4.60
2017-11-16T22:35:03.191Z,4.60
2017-11-16T22:37:30.716Z,4.60
2017-11-16T22:39:58.261Z,4.60
2017-11-16T22:42:25.786Z,4.60
2017-11-16T22:44:53.305Z,4.60
2017-11-16T22:47:20.811Z,4.60
2017-11-16T22:49:48.332Z,4.60
2017-11-16T22:52:15.845Z,4.60
2017-11-16T22:54:44.141Z,4.60
2017-11-16T22:57:11.648Z,4.60
2017-11-16T22:59:39.180Z,4.60
2017-11-16T23:02:06.688Z,4.60
2017-11-16T23:04:34.211Z,4.60
2017-11-16T23:07:01.720Z,4.60
2017-11-16T23:09:29.986Z,4.60
2017-11-16T23:11:58.287Z,4.60
2017-11-16T23:14:25.791Z,4.60
2017-11-16T23:16:53.312Z,4.60
2017-11-16T23:19:20.808Z,4.60
2017-11-16T23:21:48.328Z,4.60
2017-11-16T23:24:15.843Z,4.60
2017-11-16T23:26:43.372Z,4.60
2017-11-16T23:29:10.881Z,4.60
2017-11-16T23:31:39.184Z,4.70
2017-11-16T23:34:06.696Z,4.60
2017-11-16T23:36:34.231Z,4.70
2017-11-16T23:39:01.731Z,4.60
2017-11-16T23:41:29.250Z,4.70
2017-11-16T23:43:56.751Z,4.70
2017-11-16T23:46:25.059Z,4.70
2017-11-16T23:48:52.568Z,4.70
2017-11-16T23:51:20.093Z,4.70
2017-11-16T23:53:47.616Z,4.70
2017-11-16T23:56:15.921Z,4.70
2017-11-16T23:58:43.427Z,4.70
